createdAt,value
2022-09-07T00:00:15.131Z,19.50
2022-09-07T00:02:44.379Z,19.40
2022-09-07T00:05:12.184Z,19.30
2022-09-07T00:07:39.932Z,19.20
2022-09-07T00:10:08.899Z,19.00
2022-09-07T00:12:36.665Z,19.00
2022-09-07T00:15:08.208Z,18.80
2022-09-07T00:17:36.027Z,18.80
2022-09-07T00:20:07.412Z,18.70
2022-09-07T00:22:35.667Z,18.60
2022-09-07T00:25:03.620Z,18.50
2022-09-07T00:27:31.459Z,18.50
2022-09-07T00:29:59.221Z,18.50
2022-09-07T00:32:27.023Z,18.50
2022-09-07T00:34:55.866Z,18.40
2022-09-07T00:37:25.170Z,18.40
2022-09-07T00:39:53.415Z,18.40
2022-09-07T00:42:21.820Z,18.40
2022-09-07T00:45:12.780Z,18.30
2022-09-07T00:47:51.785Z,18.30
2022-09-07T00:50:23.454Z,18.30
2022-09-07T00:52:58.217Z,18.20
2022-09-07T00:55:27.543Z,18.20
2022-09-07T00:57:57.587Z,18.20
2022-09-07T01:00:25.661Z,18.20
2022-09-07T01:02:56.412Z,18.20
2022-09-07T01:05:29.920Z,18.20
2022-09-07T01:07:59.892Z,18.20
2022-09-07T01:10:31.758Z,18.20
2022-09-07T01:13:00.305Z,18.20
2022-09-07T01:15:37.005Z,18.20
2022-09-07T01:18:10.077Z,18.10
2022-09-07T01:20:51.761Z,18.10
2022-09-07T01:24:20.776Z,18.10
2022-09-07T01:27:28.503Z,18.10
2022-09-07T01:30:03.104Z,18.00
2022-09-07T01:32:58.342Z,18.00
2022-09-07T01:35:32.668Z,18.00
2022-09-07T01:38:09.359Z,18.00
2022-09-07T01:40:46.598Z,17.90
2022-09-07T01:43:19.955Z,17.90
2022-09-07T01:45:49.222Z,17.80
2022-09-07T01:48:19.739Z,17.70
2022-09-07T01:50:52.224Z,17.70
2022-09-07T01:53:25.056Z,17.70
2022-09-07T01:55:59.242Z,17.60
2022-09-07T01:58:31.457Z,17.60
2022-09-07T02:01:06.247Z,17.60
2022-09-07T02:03:39.131Z,17.60
2022-09-07T02:06:13.554Z,17.60
2022-09-07T02:08:44.982Z,17.50
2022-09-07T02:11:17.155Z,17.50
2022-09-07T02:13:51.740Z,17.50
2022-09-07T02:16:23.559Z,17.50
2022-09-07T02:18:54.324Z,17.40
2022-09-07T02:21:27.152Z,17.50
2022-09-07T02:24:01.546Z,17.50
2022-09-07T02:26:30.166Z,17.50
2022-09-07T02:28:58.488Z,17.50
2022-09-07T02:31:28.523Z,17.50
2022-09-07T02:33:56.387Z,17.50
2022-09-07T02:36:27.538Z,17.50
2022-09-07T02:38:55.367Z,17.50
2022-09-07T02:41:35.198Z,17.50
2022-09-07T02:44:07.118Z,17.40
2022-09-07T02:47:00.281Z,17.40
2022-09-07T02:49:43.535Z,17.40
2022-09-07T02:52:20.403Z,17.40
2022-09-07T02:55:00.935Z,17.30
2022-09-07T02:57:40.697Z,17.30
2022-09-07T03:00:11.111Z,17.30
2022-09-07T03:02:52.844Z,17.30
2022-09-07T03:05:25.843Z,17.30
2022-09-07T03:07:58.958Z,17.30
2022-09-07T03:10:28.200Z,17.30
2022-09-07T03:12:55.967Z,17.30
2022-09-07T03:15:25.638Z,17.30
2022-09-07T03:17:54.888Z,17.30
2022-09-07T03:20:23.602Z,17.30
2022-09-07T03:22:52.839Z,17.30
2022-09-07T03:25:21.895Z,17.20
2022-09-07T03:27:49.656Z,17.20
2022-09-07T03:30:17.759Z,17.20
2022-09-07T03:32:45.628Z,17.20
2022-09-07T03:35:16.401Z,17.20
2022-09-07T03:37:44.391Z,17.20
2022-09-07T03:40:14.561Z,17.10
2022-09-07T03:42:42.957Z,17.10
2022-09-07T03:45:11.812Z,17.10
2022-09-07T03:47:39.744Z,17.10
2022-09-07T03:50:08.336Z,17.00
2022-09-07T03:52:38.061Z,17.00
2022-09-07T03:55:06.751Z,17.00
2022-09-07T03:57:34.554Z,17.00
2022-09-07T04:00:02.388Z,17.00
2022-09-07T04:02:30.315Z,17.00
2022-09-07T04:04:58.141Z,17.00
2022-09-07T04:07:25.892Z,17.00
2022-09-07T04:09:55.035Z,16.90
2022-09-07T04:12:22.786Z,16.90
2022-09-07T04:14:50.552Z,16.90
2022-09-07T04:17:18.305Z,16.90
2022-09-07T04:19:46.048Z,16.90
2022-09-07T04:22:13.816Z,16.90
2022-09-07T04:24:41.586Z,16.90
2022-09-07T04:27:10.680Z,16.80
2022-09-07T04:29:38.577Z,16.80
2022-09-07T04:32:06.573Z,16.80
2022-09-07T04:34:34.353Z,16.70
2022-09-07T04:37:02.103Z,16.70
2022-09-07T04:39:29.891Z,16.70
2022-09-07T04:41:57.700Z,16.60
2022-09-07T04:44:26.839Z,16.60
2022-09-07T04:46:54.587Z,16.50
2022-09-07T04:49:22.352Z,16.50
2022-09-07T04:51:50.232Z,16.50
2022-09-07T04:54:17.985Z,16.50
2022-09-07T04:56:45.730Z,16.50
2022-09-07T04:59:13.501Z,16.50
2022-09-07T05:01:42.731Z,16.40
2022-09-07T05:04:10.604Z,16.40
2022-09-07T05:06:38.344Z,16.40
2022-09-07T05:09:06.232Z,16.40
2022-09-07T05:11:34.409Z,16.40
2022-09-07T05:14:03.852Z,16.40
2022-09-07T05:16:32.477Z,16.40
2022-09-07T05:19:04.621Z,16.40
2022-09-07T05:21:34.546Z,16.40
2022-09-07T05:24:03.171Z,16.40
2022-09-07T05:26:33.594Z,16.40
2022-09-07T05:31:51.873Z,16.40
2022-09-07T05:36:56.331Z,16.30
2022-09-07T05:39:24.206Z,16.30
2022-09-07T05:41:52.009Z,16.30
2022-09-07T05:47:07.959Z,16.30
2022-09-07T05:49:37.440Z,16.20
2022-09-07T05:52:05.306Z,16.20
2022-09-07T05:54:33.077Z,16.30
2022-09-07T05:57:02.892Z,16.30
2022-09-07T05:59:30.673Z,16.30
2022-09-07T06:01:58.473Z,16.30
2022-09-07T06:04:26.363Z,16.30
2022-09-07T06:12:30.945Z,16.40
2022-09-07T06:15:00.891Z,16.40
2022-09-07T06:17:29.486Z,16.40
2022-09-07T06:19:57.236Z,16.50
2022-09-07T06:22:30.552Z,16.50
2022-09-07T06:24:58.673Z,16.50
2022-09-07T06:27:26.432Z,16.60
2022-09-07T06:29:54.369Z,16.60
2022-09-07T06:35:10.905Z,16.70
2022-09-07T06:37:40.124Z,16.80
2022-09-07T06:40:10.328Z,16.80
2022-09-07T06:42:38.232Z,16.90
2022-09-07T06:45:07.138Z,17.00
2022-09-07T06:47:34.913Z,17.00
2022-09-07T06:50:02.684Z,17.10
2022-09-07T06:55:19.553Z,17.20
2022-09-07T06:57:47.357Z,17.30
2022-09-07T07:00:15.837Z,17.40
2022-09-07T07:02:43.571Z,17.50
2022-09-07T07:05:11.511Z,17.50
2022-09-07T07:07:39.322Z,17.60
2022-09-07T07:10:07.831Z,17.70
2022-09-07T07:15:03.797Z,17.80
2022-09-07T07:17:31.569Z,17.90
2022-09-07T07:19:59.309Z,17.90
2022-09-07T07:22:46.178Z,18.00
2022-09-07T07:25:15.114Z,18.10
2022-09-07T07:27:45.636Z,18.20
2022-09-07T07:30:13.937Z,18.30
2022-09-07T07:32:42.072Z,18.30
2022-09-07T07:35:10.892Z,18.40
2022-09-07T07:37:39.509Z,18.50
2022-09-07T07:40:18.508Z,18.60
2022-09-07T07:42:50.347Z,18.70
2022-09-07T07:48:06.518Z,18.90
2022-09-07T07:50:34.618Z,19.00
2022-09-07T07:55:51.107Z,19.10
2022-09-07T07:58:20.776Z,19.20
2022-09-07T08:00:56.594Z,19.20
2022-09-07T08:03:26.087Z,19.30
2022-09-07T08:05:54.515Z,19.40
2022-09-07T08:08:23.787Z,19.40
2022-09-07T08:10:51.567Z,19.50
2022-09-07T08:13:21.237Z,19.60
2022-09-07T08:15:49.137Z,19.70
2022-09-07T08:18:18.088Z,19.70
2022-09-07T08:20:45.908Z,19.80
2022-09-07T08:23:15.209Z,19.80
2022-09-07T08:25:51.447Z,19.90
2022-09-07T08:28:20.720Z,19.90
2022-09-07T08:30:48.767Z,19.90
2022-09-07T08:33:16.945Z,19.90
2022-09-07T08:35:54.335Z,19.90
2022-09-07T08:38:22.052Z,19.90
2022-09-07T08:40:50.836Z,20.00
2022-09-07T08:43:32.659Z,20.00
2022-09-07T08:46:06.620Z,20.00
2022-09-07T08:48:36.023Z,20.10
2022-09-07T08:51:10.469Z,20.20
2022-09-07T08:53:44.752Z,20.30
2022-09-07T08:56:18.992Z,20.40
2022-09-07T08:58:51.111Z,20.40
2022-09-07T09:01:36.671Z,20.50
2022-09-07T09:04:16.748Z,20.60
2022-09-07T09:06:57.212Z,20.70
2022-09-07T09:09:34.861Z,20.70
2022-09-07T09:12:12.752Z,20.70
2022-09-07T09:14:53.837Z,20.70
2022-09-07T09:17:31.400Z,20.70
2022-09-07T09:20:08.372Z,20.70
2022-09-07T09:22:36.434Z,20.70
2022-09-07T09:25:15.649Z,20.80
2022-09-07T09:27:43.461Z,20.90
2022-09-07T09:30:16.132Z,21.00
2022-09-07T09:32:45.543Z,21.10
2022-09-07T09:35:17.522Z,21.20
2022-09-07T09:37:45.750Z,21.20
2022-09-07T09:40:23.570Z,21.30
2022-09-07T09:43:03.649Z,21.40
2022-09-07T09:48:32.294Z,21.50
2022-09-07T09:53:58.989Z,21.60
2022-09-07T09:56:41.094Z,21.60
2022-09-07T10:05:28.763Z,21.50
2022-09-07T10:07:57.284Z,21.50
2022-09-07T10:10:26.633Z,21.70
2022-09-07T10:12:55.834Z,21.80
2022-09-07T10:15:39.637Z,21.90
2022-09-07T10:18:21.082Z,21.90
2022-09-07T10:20:48.800Z,21.90
2022-09-07T10:23:22.794Z,21.90
2022-09-07T10:25:51.044Z,21.90
2022-09-07T10:28:21.166Z,22.00
2022-09-07T10:31:02.024Z,22.00
2022-09-07T10:33:42.558Z,22.00
2022-09-07T10:36:16.370Z,21.90
2022-09-07T10:38:48.543Z,22.00
2022-09-07T10:41:19.550Z,22.00
2022-09-07T10:43:50.283Z,22.10
2022-09-07T10:49:24.816Z,22.20
2022-09-07T10:52:04.185Z,22.20
2022-09-07T10:54:40.749Z,22.20
2022-09-07T10:57:41.553Z,22.20
2022-09-07T11:00:13.018Z,22.20
2022-09-07T11:06:08.990Z,22.30
2022-09-07T11:14:34.082Z,22.30
2022-09-07T11:17:04.907Z,22.40
2022-09-07T11:19:37.494Z,22.60
2022-09-07T11:22:30.819Z,22.60
2022-09-07T11:27:57.576Z,22.60
2022-09-07T11:30:31.174Z,22.60
2022-09-07T11:33:04.394Z,22.50
2022-09-07T11:35:41.361Z,22.40
2022-09-07T11:38:25.294Z,22.40
2022-09-07T11:41:02.829Z,22.30
2022-09-07T11:43:32.721Z,22.30
2022-09-07T11:46:05.191Z,22.40
2022-09-07T11:48:37.629Z,22.60
2022-09-07T11:51:10.028Z,22.70
2022-09-07T11:53:45.422Z,22.90
2022-09-07T11:56:18.626Z,23.00
2022-09-07T11:59:12.656Z,23.20
2022-09-07T12:01:51.498Z,23.30
2022-09-07T12:04:31.433Z,23.40
2022-09-07T12:07:31.460Z,23.30
2022-09-07T12:10:28.629Z,23.30
2022-09-07T12:13:11.382Z,23.20
2022-09-07T12:15:49.157Z,23.10
2022-09-07T12:18:27.844Z,23.10
2022-09-07T12:20:56.008Z,23.00
2022-09-07T12:23:29.952Z,23.10
2022-09-07T12:26:30.852Z,23.00
2022-09-07T12:29:20.023Z,23.00
2022-09-07T12:31:58.818Z,23.10
2022-09-07T12:34:54.793Z,23.20
2022-09-07T12:37:43.094Z,23.30
2022-09-07T12:40:46.769Z,23.40
2022-09-07T12:43:34.177Z,23.40
2022-09-07T12:46:04.279Z,23.40
2022-09-07T12:48:46.513Z,23.40
2022-09-07T12:54:20.157Z,23.60
2022-09-07T12:59:54.610Z,23.90
2022-09-07T13:02:45.435Z,24.00
2022-09-07T13:05:22.532Z,24.00
2022-09-07T13:08:09.095Z,24.00
2022-09-07T13:10:38.854Z,23.90
2022-09-07T13:13:07.964Z,23.90
2022-09-07T13:15:41.052Z,23.80
2022-09-07T13:18:33.957Z,23.80
2022-09-07T13:21:34.052Z,23.80
2022-09-07T13:24:46.549Z,23.80
2022-09-07T13:27:44.192Z,23.90
2022-09-07T13:30:31.447Z,24.10
2022-09-07T13:33:52.314Z,24.20
2022-09-07T13:36:41.339Z,24.30
2022-09-07T13:39:15.049Z,24.30
2022-09-07T13:41:47.686Z,24.30
2022-09-07T13:44:25.849Z,24.30
2022-09-07T13:47:05.150Z,24.40
2022-09-07T13:49:50.409Z,24.40
2022-09-07T13:52:27.242Z,24.50
2022-09-07T13:55:11.681Z,24.50
2022-09-07T13:57:50.315Z,24.50
2022-09-07T14:00:19.306Z,24.40
2022-09-07T14:02:56.571Z,24.30
2022-09-07T14:05:26.545Z,24.20
2022-09-07T14:07:54.277Z,24.10
2022-09-07T14:10:24.859Z,24.10
2022-09-07T14:12:55.088Z,24.00
2022-09-07T14:15:28.810Z,24.00
2022-09-07T14:18:04.520Z,24.00
2022-09-07T14:20:39.233Z,24.10
2022-09-07T14:23:13.230Z,24.20
2022-09-07T14:28:31.660Z,24.20
2022-09-07T14:31:00.102Z,24.20
2022-09-07T14:33:29.455Z,24.20
2022-09-07T14:35:59.998Z,24.30
2022-09-07T14:41:20.877Z,24.40
2022-09-07T14:43:53.706Z,24.40
2022-09-07T14:46:24.933Z,24.40
2022-09-07T14:48:55.274Z,24.50
2022-09-07T14:51:35.084Z,24.50
2022-09-07T14:54:06.487Z,24.60
2022-09-07T14:56:36.467Z,24.50
2022-09-07T14:59:29.172Z,24.50
2022-09-07T15:02:33.953Z,24.50
2022-09-07T15:05:25.438Z,24.40
2022-09-07T15:07:56.173Z,24.30
2022-09-07T15:10:41.320Z,24.30
2022-09-07T15:13:24.825Z,24.30
2022-09-07T15:16:02.982Z,24.30
2022-09-07T15:18:58.076Z,24.20
2022-09-07T15:21:27.805Z,24.20
2022-09-07T15:23:58.442Z,24.20
2022-09-07T15:29:20.630Z,24.30
2022-09-07T15:32:02.285Z,24.30
2022-09-07T15:34:32.215Z,24.30
2022-09-07T15:37:01.391Z,24.30
2022-09-07T15:39:31.008Z,24.30
2022-09-07T15:42:59.014Z,24.30
2022-09-07T15:44:47.047Z,24.30
2022-09-07T15:50:05.529Z,24.20
2022-09-07T15:52:33.648Z,24.10
2022-09-07T15:55:01.482Z,24.10
2022-09-07T16:00:19.548Z,24.10
2022-09-07T16:03:06.570Z,24.10
2022-09-07T16:05:35.173Z,24.10
2022-09-07T16:10:55.825Z,24.10
2022-09-07T16:13:24.656Z,24.10
2022-09-07T16:15:52.804Z,24.10
2022-09-07T16:18:21.953Z,24.10
2022-09-07T16:20:52.653Z,24.10
2022-09-07T16:23:22.711Z,24.10
2022-09-07T16:25:58.112Z,24.00
2022-09-07T16:28:26.523Z,24.00
2022-09-07T16:30:54.519Z,24.00
2022-09-07T16:33:29.215Z,23.90
2022-09-07T16:36:06.054Z,23.90
2022-09-07T16:38:49.360Z,23.80
2022-09-07T16:41:20.297Z,23.80
2022-09-07T16:43:48.433Z,23.80
2022-09-07T16:46:17.873Z,23.70
2022-09-07T16:48:47.420Z,23.70
2022-09-07T16:51:19.599Z,23.70
2022-09-07T16:53:48.754Z,23.60
2022-09-07T16:56:18.174Z,23.60
2022-09-07T16:58:48.057Z,23.60
2022-09-07T17:01:18.104Z,23.50
2022-09-07T17:03:49.307Z,23.50
2022-09-07T17:06:18.647Z,23.50
2022-09-07T17:08:46.973Z,23.40
2022-09-07T17:11:17.014Z,23.40
2022-09-07T17:13:45.070Z,23.40
2022-09-07T17:16:15.337Z,23.30
2022-09-07T17:21:34.498Z,23.30
2022-09-07T17:24:04.357Z,23.20
2022-09-07T17:26:33.130Z,23.20
2022-09-07T17:29:01.338Z,23.10
2022-09-07T17:34:21.450Z,23.00
2022-09-07T17:36:51.379Z,22.90
2022-09-07T17:39:19.865Z,22.90
2022-09-07T17:41:48.557Z,22.80
2022-09-07T17:44:16.392Z,22.70
2022-09-07T17:46:44.186Z,22.70
2022-09-07T17:49:14.307Z,22.60
2022-09-07T17:51:42.052Z,22.50
2022-09-07T17:54:14.504Z,22.50
2022-09-07T17:56:43.062Z,22.40
2022-09-07T18:01:59.307Z,22.30
2022-09-07T18:04:28.422Z,22.20
2022-09-07T18:06:56.669Z,22.10
2022-09-07T18:09:25.757Z,22.10
2022-09-07T18:11:53.468Z,22.00
2022-09-07T18:14:21.470Z,21.90
2022-09-07T18:16:50.697Z,21.90
2022-09-07T18:19:19.737Z,21.80
2022-09-07T18:21:48.626Z,21.70
2022-09-07T18:24:18.833Z,21.60
2022-09-07T18:26:51.190Z,21.60
2022-09-07T18:29:31.098Z,21.50
2022-09-07T18:32:01.374Z,21.50
2022-09-07T18:34:30.617Z,21.40
2022-09-07T18:36:59.065Z,21.30
2022-09-07T18:39:27.072Z,21.30
2022-09-07T18:41:56.344Z,21.20
2022-09-07T18:47:21.617Z,21.10
2022-09-07T18:49:50.981Z,21.00
2022-09-07T18:55:08.483Z,20.80
2022-09-07T18:57:37.630Z,20.80
2022-09-07T19:00:06.957Z,20.70
2022-09-07T19:02:35.547Z,20.70
2022-09-07T19:07:51.307Z,20.60
2022-09-07T19:10:19.089Z,20.50
2022-09-07T19:12:48.175Z,20.50
2022-09-07T19:15:16.293Z,20.40
2022-09-07T19:17:44.150Z,20.40
2022-09-07T19:20:11.954Z,20.40
2022-09-07T19:22:39.744Z,20.30
2022-09-07T19:25:07.868Z,20.20
2022-09-07T19:27:35.980Z,20.20
2022-09-07T19:30:05.730Z,20.20
2022-09-07T19:32:33.680Z,20.10
2022-09-07T19:35:01.448Z,20.10
2022-09-07T19:37:31.851Z,20.00
2022-09-07T19:39:59.762Z,20.00
2022-09-07T19:42:28.031Z,19.90
2022-09-07T19:44:55.774Z,19.90
2022-09-07T19:47:24.956Z,19.80
2022-09-07T19:49:52.815Z,19.80
2022-09-07T19:52:20.566Z,19.80
2022-09-07T19:54:48.319Z,19.70
2022-09-07T19:57:16.074Z,19.70
2022-09-07T19:59:45.507Z,19.60
2022-09-07T20:02:13.298Z,19.60
2022-09-07T20:04:42.402Z,19.50
2022-09-07T20:07:10.128Z,19.50
2022-09-07T20:09:37.856Z,19.40
2022-09-07T20:12:08.193Z,19.40
2022-09-07T20:14:36.087Z,19.40
2022-09-07T20:17:03.886Z,19.30
2022-09-07T20:19:31.632Z,19.20
2022-09-07T20:22:00.741Z,19.20
2022-09-07T20:24:28.480Z,19.20
2022-09-07T20:26:56.253Z,19.20
2022-09-07T20:29:27.847Z,19.10
2022-09-07T20:31:56.411Z,19.10
2022-09-07T20:34:24.372Z,19.00
2022-09-07T20:36:52.652Z,19.10
2022-09-07T20:39:22.052Z,19.00
2022-09-07T20:41:50.032Z,19.00
2022-09-07T20:44:18.438Z,18.90
2022-09-07T20:46:46.247Z,18.90
2022-09-07T20:49:14.088Z,18.90
2022-09-07T20:51:41.834Z,18.80
2022-09-07T20:54:10.057Z,18.80
2022-09-07T20:56:39.271Z,18.80
2022-09-07T20:59:07.056Z,18.70
2022-09-07T21:01:35.464Z,18.70
2022-09-07T21:04:03.956Z,18.60
2022-09-07T21:06:33.049Z,18.60
2022-09-07T21:09:01.069Z,18.60
2022-09-07T21:11:31.010Z,18.50
2022-09-07T21:14:01.796Z,18.50
2022-09-07T21:16:30.091Z,18.40
2022-09-07T21:19:00.008Z,18.40
2022-09-07T21:21:29.013Z,18.30
2022-09-07T21:23:59.181Z,18.30
2022-09-07T21:26:28.405Z,18.20
2022-09-07T21:28:57.319Z,18.10
2022-09-07T21:31:27.213Z,18.10
2022-09-07T21:33:56.567Z,18.10
2022-09-07T21:36:25.040Z,18.10
2022-09-07T21:38:53.153Z,18.10
2022-09-07T21:41:24.417Z,18.00
2022-09-07T21:43:55.568Z,18.00
2022-09-07T21:46:23.664Z,18.00
2022-09-07T21:48:52.818Z,18.00
2022-09-07T21:51:20.711Z,18.00
2022-09-07T21:53:52.917Z,17.90
2022-09-07T21:56:21.291Z,17.90
2022-09-07T21:58:49.878Z,17.90
2022-09-07T22:01:19.399Z,17.80
2022-09-07T22:03:53.621Z,17.80
2022-09-07T22:06:23.148Z,17.80
2022-09-07T22:08:51.285Z,17.80
2022-09-07T22:11:21.532Z,17.70
2022-09-07T22:13:49.528Z,17.70
2022-09-07T22:16:17.288Z,17.70
2022-09-07T22:18:46.198Z,17.70
2022-09-07T22:21:15.938Z,17.60
2022-09-07T22:23:47.225Z,17.60
2022-09-07T22:26:16.402Z,17.60
2022-09-07T23:37:31.069Z,16.90
2022-09-07T23:39:58.892Z,16.90
2022-09-07T23:42:26.637Z,16.90
2022-09-07T23:44:54.366Z,16.80
2022-09-07T23:47:22.097Z,16.80
2022-09-07T23:49:49.856Z,16.80
2022-09-07T23:52:18.015Z,16.70
2022-09-07T23:54:47.120Z,16.70
2022-09-07T23:57:14.863Z,16.70
2022-09-07T23:59:42.628Z,16.70
